createdAt,value
2023-02-28T00:00:13.274Z,2.13
2023-02-28T00:02:18.580Z,3.45
2023-02-28T00:04:22.908Z,2.85
2023-02-28T00:06:28.631Z,2.38
2023-02-28T00:08:32.854Z,4.13
2023-02-28T00:10:37.125Z,2.05
2023-02-28T00:12:41.468Z,3.38
2023-02-28T00:14:45.710Z,2.28
2023-02-28T00:16:49.925Z,2.22
2023-02-28T00:18:54.273Z,2.70
2023-02-28T00:20:58.631Z,3.05
2023-02-28T00:23:04.225Z,2.20
2023-02-28T00:25:09.405Z,2.10
2023-02-28T00:27:13.682Z,2.60
2023-02-28T00:29:17.929Z,2.60
2023-02-28T00:31:22.272Z,2.75
2023-02-28T00:33:26.544Z,2.10
2023-02-28T00:35:32.450Z,2.35
2023-02-28T00:37:37.109Z,2.33
2023-02-28T00:39:44.791Z,2.20
2023-02-28T00:41:49.034Z,2.55
2023-02-28T00:43:53.258Z,2.70
2023-02-28T00:45:57.495Z,2.00
2023-02-28T00:48:01.952Z,2.35
2023-02-28T00:50:07.340Z,3.03
2023-02-28T00:52:11.569Z,2.20
2023-02-28T00:54:15.824Z,2.30
2023-02-28T00:56:22.100Z,2.45
2023-02-28T00:58:26.282Z,2.20
2023-02-28T01:00:30.484Z,2.78
2023-02-28T01:02:34.840Z,2.25
2023-02-28T01:04:39.082Z,2.22
2023-02-28T01:06:43.364Z,2.60
2023-02-28T01:08:48.304Z,3.13
2023-02-28T01:10:52.508Z,2.72
2023-02-28T01:12:58.053Z,2.50
2023-02-28T01:15:02.241Z,2.45
2023-02-28T01:17:06.944Z,1.77
2023-02-28T01:19:11.250Z,2.38
2023-02-28T01:21:17.582Z,2.10
2023-02-28T01:23:24.263Z,2.53
2023-02-28T01:25:28.523Z,1.70
2023-02-28T01:27:32.742Z,3.17
2023-02-28T01:29:38.333Z,1.80
2023-02-28T01:31:42.606Z,2.03
2023-02-28T01:33:47.024Z,2.35
2023-02-28T01:35:51.254Z,2.25
2023-02-28T01:37:55.550Z,1.80
2023-02-28T01:39:59.770Z,1.73
2023-02-28T01:42:04.026Z,1.77
2023-02-28T01:44:08.774Z,1.90
2023-02-28T01:46:14.592Z,2.08
2023-02-28T01:48:18.822Z,1.90
2023-02-28T01:50:25.208Z,2.35
2023-02-28T01:52:29.808Z,2.17
2023-02-28T01:54:35.286Z,2.10
2023-02-28T01:56:39.745Z,2.15
2023-02-28T01:58:43.958Z,1.75
2023-02-28T02:00:48.875Z,1.67
2023-02-28T02:02:55.648Z,2.13
2023-02-28T02:05:02.706Z,1.63
2023-02-28T02:07:07.310Z,2.17
2023-02-28T02:09:11.524Z,1.70
2023-02-28T02:11:15.740Z,2.13
2023-02-28T02:13:36.099Z,2.17
2023-02-28T02:15:42.864Z,2.00
2023-02-28T02:17:47.944Z,2.30
2023-02-28T02:20:27.104Z,1.77
2023-02-28T02:22:46.227Z,1.77
2023-02-28T02:25:06.975Z,1.90
2023-02-28T02:27:37.895Z,1.80
2023-02-28T02:29:57.326Z,2.55
2023-02-28T02:32:41.327Z,2.25
2023-02-28T02:34:51.059Z,2.22
2023-02-28T02:37:01.347Z,2.30
2023-02-28T02:39:08.110Z,1.50
2023-02-28T02:41:15.041Z,2.92
2023-02-28T02:43:21.004Z,1.98
2023-02-28T02:45:28.207Z,2.60
2023-02-28T02:47:32.928Z,1.55
2023-02-28T02:49:38.624Z,2.83
2023-02-28T02:51:44.296Z,2.30
2023-02-28T02:53:51.351Z,2.15
2023-02-28T02:55:55.672Z,1.80
2023-02-28T02:58:02.973Z,2.10
2023-02-28T03:00:10.047Z,2.08
2023-02-28T03:02:15.885Z,1.60
2023-02-28T03:04:21.719Z,1.95
2023-02-28T03:06:26.057Z,1.52
2023-02-28T03:08:35.126Z,1.98
2023-02-28T03:10:41.069Z,1.83
2023-02-28T03:12:53.641Z,1.63
2023-02-28T03:15:01.428Z,2.17
2023-02-28T03:17:26.476Z,2.00
2023-02-28T03:19:47.186Z,1.70
2023-02-28T03:24:01.253Z,2.13
2023-02-28T03:26:08.188Z,1.58
2023-02-28T03:28:15.459Z,2.13
2023-02-28T03:30:22.258Z,2.60
2023-02-28T03:32:28.076Z,2.20
2023-02-28T03:34:33.881Z,1.88
2023-02-28T03:36:44.893Z,2.35
2023-02-28T03:38:51.142Z,1.90
2023-02-28T03:40:59.995Z,2.10
2023-02-28T03:43:06.379Z,1.70
2023-02-28T03:45:13.056Z,1.52
2023-02-28T03:47:18.948Z,1.55
2023-02-28T03:49:24.506Z,1.75
2023-02-28T03:51:29.152Z,1.83
2023-02-28T03:53:34.508Z,1.50
2023-02-28T03:55:41.655Z,1.92
2023-02-28T03:57:55.072Z,1.20
2023-02-28T04:00:00.941Z,1.63
2023-02-28T04:02:05.180Z,1.80
2023-02-28T04:04:09.519Z,1.30
2023-02-28T04:06:17.419Z,1.83
2023-02-28T04:08:21.646Z,1.63
2023-02-28T04:10:25.981Z,1.77
2023-02-28T04:12:30.192Z,1.27
2023-02-28T04:14:36.135Z,1.73
2023-02-28T04:16:41.076Z,1.38
2023-02-28T04:18:45.292Z,2.45
2023-02-28T04:20:49.852Z,1.95
2023-02-28T04:22:54.051Z,1.88
2023-02-28T04:24:58.271Z,1.67
2023-02-28T04:27:02.560Z,1.70
2023-02-28T04:29:09.017Z,1.35
2023-02-28T04:31:14.599Z,1.52
2023-02-28T04:33:18.837Z,1.80
2023-02-28T04:35:23.064Z,1.73
2023-02-28T04:37:29.738Z,1.55
2023-02-28T04:39:37.385Z,1.67
2023-02-28T04:41:41.594Z,1.80
2023-02-28T04:43:45.875Z,1.52
2023-02-28T04:45:50.135Z,2.15
2023-02-28T04:47:56.180Z,1.83
2023-02-28T04:50:00.813Z,1.98
2023-02-28T04:52:05.055Z,2.17
2023-02-28T04:54:09.683Z,1.50
2023-02-28T04:56:14.728Z,2.15
2023-02-28T04:58:18.989Z,2.15
2023-02-28T05:00:23.606Z,1.85
2023-02-28T05:02:27.882Z,1.45
2023-02-28T05:04:35.136Z,1.58
2023-02-28T05:06:39.403Z,2.28
2023-02-28T05:08:43.595Z,1.55
2023-02-28T05:10:47.845Z,1.10
2023-02-28T05:12:52.106Z,1.48
2023-02-28T05:14:56.298Z,1.60
2023-02-28T05:17:00.491Z,1.67
2023-02-28T05:19:05.290Z,1.80
2023-02-28T05:21:29.732Z,1.48
2023-02-28T05:23:34.340Z,1.33
2023-02-28T05:25:38.643Z,2.28
2023-02-28T05:27:42.848Z,1.40
2023-02-28T05:29:47.197Z,1.40
2023-02-28T05:31:51.529Z,1.60
2023-02-28T05:33:55.820Z,1.38
2023-02-28T05:36:00.125Z,1.35
2023-02-28T05:38:05.750Z,1.30
2023-02-28T05:40:12.072Z,1.67
2023-02-28T05:42:16.299Z,1.55
2023-02-28T05:44:20.483Z,1.92
2023-02-28T05:46:24.678Z,1.38
2023-02-28T05:48:28.918Z,1.70
2023-02-28T05:50:33.137Z,1.83
2023-02-28T05:52:37.381Z,1.25
2023-02-28T05:54:43.041Z,1.20
2023-02-28T05:56:47.268Z,1.50
2023-02-28T05:58:51.447Z,1.30
2023-02-28T06:00:55.828Z,1.27
2023-02-28T06:03:02.629Z,1.20
2023-02-28T06:05:08.199Z,1.42
2023-02-28T06:07:12.860Z,1.67
2023-02-28T06:09:17.051Z,1.88
2023-02-28T06:11:27.975Z,1.58
2023-02-28T06:13:32.608Z,1.52
2023-02-28T06:15:36.920Z,1.60
2023-02-28T06:17:41.509Z,1.63
2023-02-28T06:19:45.708Z,1.80
2023-02-28T06:21:51.747Z,1.50
2023-02-28T06:23:56.385Z,1.75
2023-02-28T06:26:00.572Z,1.50
2023-02-28T06:28:06.337Z,1.38
2023-02-28T06:30:11.516Z,1.50
2023-02-28T06:32:15.840Z,1.67
2023-02-28T06:34:20.123Z,1.45
2023-02-28T06:36:24.328Z,1.20
2023-02-28T06:38:28.533Z,1.63
2023-02-28T06:40:35.334Z,1.77
2023-02-28T06:42:39.600Z,1.25
2023-02-28T06:44:45.175Z,1.67
2023-02-28T06:46:49.527Z,1.55
2023-02-28T06:48:53.722Z,1.27
2023-02-28T06:51:05.086Z,1.77
2023-02-28T06:53:09.286Z,1.65
2023-02-28T06:55:13.539Z,1.73
2023-02-28T06:57:17.776Z,1.42
2023-02-28T06:59:22.003Z,1.40
2023-02-28T07:01:29.216Z,1.70
2023-02-28T07:03:34.556Z,1.60
2023-02-28T07:05:39.248Z,1.77
2023-02-28T07:07:45.508Z,1.73
2023-02-28T07:09:49.727Z,1.80
2023-02-28T07:11:54.320Z,1.55
2023-02-28T07:13:58.685Z,1.30
2023-02-28T07:16:04.011Z,1.83
2023-02-28T07:18:09.600Z,1.60
2023-02-28T07:20:14.675Z,1.20
2023-02-28T07:22:19.019Z,1.05
2023-02-28T07:24:26.711Z,1.52
2023-02-28T07:26:30.969Z,1.50
2023-02-28T07:28:35.195Z,1.40
2023-02-28T07:30:39.514Z,1.27
2023-02-28T07:32:45.227Z,1.30
2023-02-28T07:34:50.898Z,1.45
2023-02-28T07:36:55.870Z,1.48
2023-02-28T07:39:01.084Z,0.98
2023-02-28T07:41:06.072Z,1.33
2023-02-28T07:43:10.260Z,1.58
2023-02-28T07:45:15.324Z,1.05
2023-02-28T07:47:19.631Z,1.67
2023-02-28T07:49:23.820Z,1.02
2023-02-28T07:51:29.643Z,1.67
2023-02-28T07:53:34.016Z,1.42
2023-02-28T07:55:38.239Z,1.00
2023-02-28T07:57:42.480Z,1.40
2023-02-28T07:59:46.729Z,1.33
2023-02-28T08:01:51.483Z,1.42
2023-02-28T08:03:55.798Z,1.83
2023-02-28T08:06:00.026Z,1.33
2023-02-28T08:08:05.720Z,1.13
2023-02-28T08:10:11.043Z,1.50
2023-02-28T08:12:15.800Z,1.77
2023-02-28T08:14:20.040Z,1.55
2023-02-28T08:16:24.278Z,0.98
2023-02-28T08:18:28.572Z,1.48
2023-02-28T08:20:32.798Z,1.00
2023-02-28T08:22:37.013Z,1.92
2023-02-28T08:24:42.832Z,1.30
2023-02-28T08:26:47.010Z,1.58
2023-02-28T08:28:51.203Z,1.30
2023-02-28T08:30:55.698Z,1.50
2023-02-28T08:33:00.002Z,1.48
2023-02-28T08:35:04.900Z,1.35
2023-02-28T08:37:09.180Z,1.05
2023-02-28T08:39:13.489Z,1.27
2023-02-28T08:41:19.414Z,1.20
2023-02-28T08:43:23.652Z,1.88
2023-02-28T08:45:27.938Z,1.10
2023-02-28T08:47:32.202Z,1.30
2023-02-28T08:49:36.410Z,2.00
2023-02-28T08:51:41.293Z,1.35
2023-02-28T08:53:45.515Z,1.38
2023-02-28T08:55:49.725Z,1.35
2023-02-28T08:57:55.877Z,1.13
2023-02-28T09:00:00.072Z,1.13
2023-02-28T09:02:04.444Z,1.67
2023-02-28T09:04:09.508Z,1.00
2023-02-28T09:06:13.766Z,2.03
2023-02-28T09:08:17.976Z,0.95
2023-02-28T09:10:22.253Z,1.58
2023-02-28T09:12:27.018Z,1.25
2023-02-28T09:14:32.641Z,1.23
2023-02-28T09:16:37.327Z,1.15
2023-02-28T09:18:41.755Z,1.17
2023-02-28T09:20:46.021Z,1.15
2023-02-28T09:22:50.212Z,1.25
2023-02-28T09:24:54.423Z,1.55
2023-02-28T09:27:05.112Z,1.48
2023-02-28T09:29:09.902Z,1.33
2023-02-28T09:31:16.587Z,1.48
2023-02-28T09:33:21.721Z,1.40
2023-02-28T09:35:27.661Z,1.63
2023-02-28T09:37:32.148Z,1.92
2023-02-28T09:39:36.374Z,1.50
2023-02-28T09:41:48.271Z,1.50
2023-02-28T09:43:54.388Z,3.33
2023-02-28T09:46:01.799Z,1.27
2023-02-28T09:48:12.039Z,3.70
2023-02-28T09:50:20.065Z,5.00
2023-02-28T09:52:25.993Z,3.67
2023-02-28T09:54:31.229Z,3.83
2023-02-28T09:56:39.059Z,3.00
2023-02-28T09:58:46.286Z,3.00
2023-02-28T10:00:52.512Z,2.67
2023-02-28T10:03:04.239Z,2.67
2023-02-28T10:05:10.781Z,2.65
2023-02-28T10:07:21.702Z,2.15
2023-02-28T10:09:26.650Z,1.83
2023-02-28T10:11:32.661Z,2.47
2023-02-28T10:13:38.280Z,2.17
2023-02-28T10:15:42.712Z,2.03
2023-02-28T10:17:55.607Z,2.30
2023-02-28T10:20:14.487Z,2.13
2023-02-28T10:22:20.321Z,2.03
2023-02-28T10:24:29.270Z,1.73
2023-02-28T10:26:34.485Z,1.55
2023-02-28T10:28:38.737Z,2.10
2023-02-28T10:30:44.167Z,1.90
2023-02-28T10:32:51.450Z,2.03
2023-02-28T10:34:56.182Z,1.60
2023-02-28T10:37:08.217Z,2.10
2023-02-28T10:39:41.434Z,1.75
2023-02-28T10:41:45.778Z,1.80
2023-02-28T10:43:50.102Z,2.20
2023-02-28T10:46:00.874Z,1.77
2023-02-28T10:48:07.105Z,2.22
2023-02-28T10:50:30.469Z,1.70
2023-02-28T10:52:38.176Z,1.23
2023-02-28T10:54:42.520Z,2.03
2023-02-28T10:56:46.816Z,1.70
2023-02-28T10:58:53.896Z,2.00
2023-02-28T11:00:58.419Z,1.90
2023-02-28T11:03:02.883Z,1.70
2023-02-28T11:05:28.773Z,1.63
2023-02-28T11:07:41.431Z,1.40
2023-02-28T11:09:57.011Z,1.90
2023-02-28T11:12:01.278Z,1.50
2023-02-28T11:14:06.808Z,1.75
2023-02-28T11:16:12.736Z,1.48
2023-02-28T11:18:25.349Z,1.88
2023-02-28T11:20:30.926Z,2.47
2023-02-28T11:22:37.324Z,1.67
2023-02-28T11:24:44.652Z,2.03
2023-02-28T11:26:51.223Z,1.77
2023-02-28T11:28:58.280Z,1.73
2023-02-28T11:31:05.123Z,1.40
2023-02-28T11:33:28.993Z,2.10
2023-02-28T11:35:35.740Z,2.53
2023-02-28T11:37:40.399Z,1.48
2023-02-28T11:39:44.830Z,1.80
2023-02-28T11:42:02.994Z,1.73
2023-02-28T11:44:18.553Z,1.75
2023-02-28T11:46:28.175Z,1.88
2023-02-28T11:48:35.501Z,1.23
2023-02-28T11:50:48.510Z,1.70
2023-02-28T11:52:55.625Z,1.40
2023-02-28T11:55:05.664Z,2.35
2023-02-28T11:57:20.660Z,1.95
2023-02-28T11:59:37.869Z,2.00
2023-02-28T12:01:53.018Z,1.83
2023-02-28T12:04:05.608Z,1.60
2023-02-28T12:06:16.562Z,2.00
2023-02-28T12:08:28.813Z,1.63
2023-02-28T12:10:34.624Z,1.60
2023-02-28T12:12:46.001Z,1.55
2023-02-28T12:15:10.927Z,1.40
2023-02-28T12:17:22.744Z,1.40
2023-02-28T12:19:27.966Z,1.63
2023-02-28T12:21:38.013Z,1.67
2023-02-28T12:23:54.534Z,1.55
2023-02-28T12:26:10.465Z,2.08
2023-02-28T12:28:16.818Z,1.48
2023-02-28T12:30:23.571Z,1.70
2023-02-28T12:32:29.572Z,1.73
2023-02-28T12:34:35.494Z,1.77
2023-02-28T12:36:40.782Z,1.73
2023-02-28T12:38:47.286Z,1.60
2023-02-28T12:40:53.530Z,1.23
2023-02-28T12:42:59.241Z,1.75
2023-02-28T12:45:09.776Z,1.13
2023-02-28T12:47:16.966Z,1.25
2023-02-28T12:49:23.964Z,1.77
2023-02-28T12:51:28.506Z,1.73
2023-02-28T12:53:37.313Z,1.40
2023-02-28T12:55:43.984Z,1.50
2023-02-28T12:57:50.577Z,1.48
2023-02-28T12:59:56.108Z,1.35
2023-02-28T13:02:32.261Z,1.25
2023-02-28T13:04:57.557Z,1.20
2023-02-28T13:07:10.285Z,2.13
2023-02-28T13:09:16.249Z,1.40
2023-02-28T13:11:27.455Z,1.90
2023-02-28T13:13:32.627Z,1.90
2023-02-28T13:15:41.501Z,1.83
2023-02-28T13:17:47.166Z,2.00
2023-02-28T13:19:59.393Z,1.30
2023-02-28T13:22:04.372Z,1.40
2023-02-28T13:24:10.361Z,1.27
2023-02-28T13:26:14.666Z,1.50
2023-02-28T13:29:09.185Z,1.30
2023-02-28T13:31:13.534Z,1.70
2023-02-28T13:33:26.924Z,1.58
2023-02-28T13:35:45.978Z,1.95
2023-02-28T13:37:52.733Z,1.45
2023-02-28T13:39:57.247Z,1.42
2023-02-28T13:42:12.106Z,2.00
2023-02-28T13:44:20.936Z,1.42
2023-02-28T13:46:25.144Z,1.13
2023-02-28T13:48:30.921Z,1.23
2023-02-28T13:50:38.666Z,1.17
2023-02-28T13:52:48.609Z,1.70
2023-02-28T13:55:16.914Z,1.45
2023-02-28T13:57:25.618Z,2.13
2023-02-28T13:59:33.370Z,1.80
2023-02-28T14:01:52.922Z,2.55
2023-02-28T14:04:08.671Z,1.30
2023-02-28T14:06:18.091Z,1.38
2023-02-28T14:08:23.900Z,1.30
2023-02-28T14:10:30.348Z,1.80
2023-02-28T14:13:02.996Z,1.65
2023-02-28T14:15:20.289Z,1.10
2023-02-28T14:17:24.513Z,1.60
2023-02-28T14:19:30.766Z,2.05
2023-02-28T14:21:36.501Z,1.48
2023-02-28T14:24:05.119Z,1.45
2023-02-28T14:26:13.180Z,1.48
2023-02-28T14:28:21.141Z,1.10
2023-02-28T14:30:53.475Z,1.38
2023-02-28T14:33:03.298Z,1.58
2023-02-28T14:35:17.776Z,1.45
2023-02-28T14:37:25.662Z,1.20
2023-02-28T14:39:31.724Z,2.08
2023-02-28T14:41:38.017Z,1.45
2023-02-28T14:43:52.516Z,1.60
2023-02-28T14:45:57.629Z,1.75
2023-02-28T14:48:01.846Z,1.33
2023-02-28T14:50:07.065Z,1.60
2023-02-28T14:52:16.903Z,1.48
2023-02-28T14:54:24.835Z,1.42
2023-02-28T14:56:32.031Z,1.30
2023-02-28T14:58:36.524Z,1.75
2023-02-28T15:00:49.546Z,1.40
2023-02-28T15:02:54.000Z,1.63
2023-02-28T15:04:59.168Z,1.50
2023-02-28T15:07:10.532Z,2.22
2023-02-28T15:09:19.431Z,2.05
2023-02-28T15:11:24.122Z,1.50
2023-02-28T15:13:32.392Z,1.55
2023-02-28T15:15:51.546Z,1.33
2023-02-28T15:18:05.789Z,1.70
2023-02-28T15:20:14.150Z,1.48
2023-02-28T15:22:19.339Z,1.70
2023-02-28T15:24:32.611Z,1.42
2023-02-28T15:26:37.852Z,1.60
2023-02-28T15:28:42.060Z,1.52
2023-02-28T15:30:54.549Z,1.42
2023-02-28T15:33:07.300Z,1.40
2023-02-28T15:35:22.339Z,1.92
2023-02-28T15:37:31.913Z,1.30
2023-02-28T15:39:42.708Z,1.60
2023-02-28T15:43:50.906Z,1.40
2023-02-28T15:45:56.807Z,1.60
2023-02-28T15:48:12.247Z,1.50
2023-02-28T15:50:19.308Z,1.35
2023-02-28T15:52:26.670Z,1.55
2023-02-28T15:54:31.831Z,1.58
2023-02-28T15:56:40.385Z,1.23
2023-02-28T15:58:44.660Z,1.48
2023-02-28T16:01:03.560Z,1.85
2023-02-28T16:03:25.539Z,1.20
2023-02-28T16:05:32.596Z,1.52
2023-02-28T16:07:37.291Z,1.52
2023-02-28T16:09:43.437Z,1.45
2023-02-28T16:11:50.269Z,1.98
2023-02-28T16:13:54.808Z,1.80
2023-02-28T16:16:01.586Z,1.70
2023-02-28T16:18:05.988Z,1.55
2023-02-28T16:20:15.822Z,1.58
2023-02-28T16:22:20.037Z,1.52
2023-02-28T16:24:24.284Z,1.35
2023-02-28T16:26:29.253Z,1.40
2023-02-28T16:28:35.616Z,1.10
2023-02-28T16:30:39.931Z,1.92
2023-02-28T16:32:44.866Z,1.55
2023-02-28T16:34:49.092Z,1.73
2023-02-28T16:36:53.386Z,1.50
2023-02-28T16:38:57.958Z,1.48
2023-02-28T16:41:02.227Z,1.40
2023-02-28T16:43:09.445Z,1.13
2023-02-28T16:45:20.376Z,1.42
2023-02-28T16:47:24.618Z,1.73
2023-02-28T16:49:28.938Z,1.23
2023-02-28T16:51:35.610Z,1.33
2023-02-28T16:53:40.228Z,1.33
2023-02-28T16:55:44.446Z,1.30
2023-02-28T16:57:49.422Z,1.55
2023-02-28T16:59:53.636Z,1.42
2023-02-28T17:01:59.712Z,1.25
2023-02-28T17:04:04.048Z,1.63
2023-02-28T17:06:08.909Z,1.23
2023-02-28T17:08:13.338Z,1.40
2023-02-28T17:10:18.860Z,1.10
2023-02-28T17:12:23.092Z,1.65
2023-02-28T17:14:27.925Z,1.33
2023-02-28T17:16:33.818Z,1.33
2023-02-28T17:18:39.975Z,1.23
2023-02-28T17:20:44.186Z,1.10
2023-02-28T17:22:48.483Z,1.63
2023-02-28T17:24:52.666Z,1.35
2023-02-28T17:26:56.900Z,1.35
2023-02-28T17:29:01.183Z,1.40
2023-02-28T17:31:05.506Z,1.60
2023-02-28T17:33:10.021Z,1.42
2023-02-28T17:35:15.735Z,1.17
2023-02-28T17:37:19.985Z,1.50
2023-02-28T17:39:25.813Z,1.38
2023-02-28T17:41:31.319Z,1.77
2023-02-28T17:43:35.558Z,1.52
2023-02-28T17:45:39.839Z,1.73
2023-02-28T17:47:45.751Z,1.13
2023-02-28T17:49:49.932Z,1.70
2023-02-28T17:51:55.543Z,1.52
2023-02-28T17:54:00.327Z,1.70
2023-02-28T17:56:04.587Z,1.50
2023-02-28T17:58:10.101Z,1.55
2023-02-28T18:00:16.752Z,1.98
2023-02-28T18:02:21.020Z,1.55
2023-02-28T18:04:27.559Z,1.38
2023-02-28T18:06:35.762Z,1.83
2023-02-28T18:08:42.273Z,1.63
2023-02-28T18:10:46.653Z,1.45
2023-02-28T18:12:52.231Z,1.90
2023-02-28T18:14:56.436Z,1.52
2023-02-28T18:17:00.659Z,1.60
2023-02-28T18:19:04.880Z,1.40
2023-02-28T18:21:09.534Z,1.30
2023-02-28T18:23:14.099Z,1.88
2023-02-28T18:25:20.607Z,1.10
2023-02-28T18:27:24.787Z,1.90
2023-02-28T18:29:29.534Z,1.02
2023-02-28T18:31:33.826Z,1.52
2023-02-28T18:33:38.147Z,1.63
2023-02-28T18:35:44.422Z,1.67
2023-02-28T18:37:48.762Z,1.67
2023-02-28T18:39:53.021Z,1.40
2023-02-28T18:41:59.026Z,1.85
2023-02-28T18:44:13.714Z,1.65
2023-02-28T18:46:23.216Z,1.37
2023-02-28T18:48:27.398Z,1.80
2023-02-28T18:50:31.771Z,1.45
2023-02-28T18:52:35.984Z,1.60
2023-02-28T18:54:40.202Z,1.65
2023-02-28T18:56:44.621Z,1.45
2023-02-28T18:58:50.207Z,1.98
2023-02-28T19:00:54.558Z,1.27
2023-02-28T19:02:59.054Z,1.30
2023-02-28T19:05:03.325Z,1.40
2023-02-28T19:07:07.569Z,2.22
2023-02-28T19:09:12.109Z,1.58
2023-02-28T19:11:18.613Z,1.63
2023-02-28T19:13:22.824Z,1.30
2023-02-28T19:15:28.441Z,2.15
2023-02-28T19:17:33.127Z,1.50
2023-02-28T19:19:37.318Z,1.63
2023-02-28T19:21:41.588Z,1.65
2023-02-28T19:23:45.816Z,1.38
2023-02-28T19:25:50.064Z,1.98
2023-02-28T19:27:54.444Z,1.33
2023-02-28T19:29:59.269Z,1.30
2023-02-28T19:32:04.939Z,1.67
2023-02-28T19:34:09.257Z,1.55
2023-02-28T19:36:13.531Z,1.83
2023-02-28T19:38:17.837Z,1.90
2023-02-28T19:40:22.173Z,1.77
2023-02-28T19:42:29.780Z,1.80
2023-02-28T19:44:34.003Z,1.48
2023-02-28T19:46:38.572Z,1.55
2023-02-28T19:48:44.822Z,2.00
2023-02-28T19:50:49.161Z,1.85
2023-02-28T19:52:53.440Z,1.83
2023-02-28T19:54:57.770Z,2.05
2023-02-28T19:57:02.179Z,1.80
2023-02-28T19:59:13.006Z,1.60
2023-02-28T20:01:26.043Z,1.67
2023-02-28T20:03:30.492Z,1.80
2023-02-28T20:05:36.067Z,1.95
2023-02-28T20:07:40.366Z,1.55
2023-02-28T20:09:45.763Z,1.40
2023-02-28T20:11:50.585Z,1.60
2023-02-28T20:13:55.005Z,1.73
2023-02-28T20:16:01.810Z,1.48
2023-02-28T20:18:06.068Z,1.48
2023-02-28T20:20:12.269Z,1.90
2023-02-28T20:22:17.844Z,1.42
2023-02-28T20:24:25.731Z,1.65
2023-02-28T20:26:30.189Z,1.42
2023-02-28T20:28:34.611Z,1.60
2023-02-28T20:30:41.882Z,1.45
2023-02-28T20:32:46.184Z,1.83
2023-02-28T20:34:50.411Z,1.58
2023-02-28T20:36:56.473Z,2.15
2023-02-28T20:39:02.180Z,1.85
2023-02-28T20:41:07.277Z,1.40
2023-02-28T20:43:11.740Z,1.50
2023-02-28T20:45:16.205Z,1.83
2023-02-28T20:47:20.430Z,1.70
2023-02-28T20:49:24.791Z,1.70
2023-02-28T20:51:29.423Z,1.77
2023-02-28T20:53:34.764Z,1.38
2023-02-28T20:55:40.359Z,2.17
2023-02-28T20:57:44.633Z,1.67
2023-02-28T20:59:48.886Z,1.55
2023-02-28T21:01:53.126Z,2.10
2023-02-28T21:03:58.145Z,1.73
2023-02-28T21:06:03.102Z,1.70
2023-02-28T21:08:07.554Z,1.65
2023-02-28T21:10:13.290Z,1.90
2023-02-28T21:12:18.881Z,1.40
2023-02-28T21:14:23.901Z,1.33
2023-02-28T21:16:29.572Z,1.40
2023-02-28T21:18:34.257Z,1.83
2023-02-28T21:20:38.527Z,1.52
2023-02-28T21:22:42.766Z,1.92
2023-02-28T21:24:47.051Z,1.75
2023-02-28T21:26:52.663Z,1.52
2023-02-28T21:28:59.202Z,1.60
2023-02-28T21:31:03.949Z,2.28
2023-02-28T21:33:08.225Z,1.70
2023-02-28T21:35:12.436Z,2.03
2023-02-28T21:37:16.688Z,1.77
2023-02-28T21:39:23.278Z,1.77
2023-02-28T21:41:28.353Z,1.60
2023-02-28T21:43:32.588Z,2.00
2023-02-28T21:45:38.209Z,1.65
2023-02-28T21:47:42.450Z,1.98
2023-02-28T21:49:46.681Z,1.42
2023-02-28T21:51:50.957Z,1.40
2023-02-28T21:53:55.243Z,1.27
2023-02-28T21:56:01.752Z,1.60
2023-02-28T21:58:06.004Z,1.45
2023-02-28T22:00:12.153Z,1.85
2023-02-28T22:02:20.928Z,1.77
2023-02-28T22:04:25.244Z,1.70
2023-02-28T22:06:31.013Z,1.30
2023-02-28T22:08:35.370Z,1.52
2023-02-28T22:10:39.816Z,1.75
2023-02-28T22:12:44.551Z,1.60
2023-02-28T22:14:48.748Z,2.65
2023-02-28T22:16:55.094Z,1.50
2023-02-28T22:19:03.183Z,1.73
2023-02-28T22:21:07.682Z,1.50
2023-02-28T22:23:11.958Z,1.92
2023-02-28T22:25:16.592Z,1.60
2023-02-28T22:27:20.812Z,2.38
2023-02-28T22:29:25.057Z,2.22
2023-02-28T22:31:30.141Z,2.08
2023-02-28T22:33:34.493Z,2.10
2023-02-28T22:35:40.238Z,9.65
2023-02-28T22:37:44.486Z,13.93
2023-02-28T22:39:48.745Z,11.80
2023-02-28T22:41:55.684Z,11.60
2023-02-28T22:44:01.446Z,10.98
2023-02-28T22:46:07.579Z,9.18
2023-02-28T22:48:12.076Z,8.90
2023-02-28T22:50:16.512Z,8.63
2023-02-28T22:52:22.182Z,8.32
2023-02-28T22:54:26.487Z,8.27
2023-02-28T22:56:31.965Z,7.88
2023-02-28T22:58:36.398Z,7.25
2023-02-28T23:00:41.628Z,7.30
2023-02-28T23:02:46.037Z,7.07
2023-02-28T23:04:50.604Z,6.57
2023-02-28T23:06:54.830Z,6.20
2023-02-28T23:09:01.953Z,6.28
2023-02-28T23:11:06.597Z,6.35
2023-02-28T23:13:10.891Z,4.95
2023-02-28T23:15:15.348Z,5.72
2023-02-28T23:17:19.597Z,5.88
2023-02-28T23:19:25.226Z,6.90
2023-02-28T23:21:29.675Z,5.20
2023-02-28T23:23:34.769Z,4.78
2023-02-28T23:25:42.464Z,5.00
2023-02-28T23:27:46.688Z,5.18
2023-02-28T23:29:51.138Z,4.20
2023-02-28T23:31:55.550Z,4.97
2023-02-28T23:34:00.548Z,4.28
2023-02-28T23:36:11.349Z,4.82
2023-02-28T23:40:19.660Z,4.30
2023-02-28T23:42:25.180Z,4.30
2023-02-28T23:44:29.418Z,5.45
2023-02-28T23:46:33.609Z,3.90
2023-02-28T23:48:38.237Z,4.45
2023-02-28T23:50:42.453Z,4.70
2023-02-28T23:52:46.660Z,3.83
2023-02-28T23:54:50.841Z,3.75
2023-02-28T23:56:55.101Z,4.00
2023-02-28T23:59:00.659Z,3.88
